sensor_id;sensor_type;location;lat;lon;timestamp;pressure;altitude;pressure_sealevel;temperature;humidity
50282;BME280;36176;51.506;10.272;2023-06-10T00:02:10;99448.78;;;15.34;73.97
50282;BME280;36176;51.506;10.272;2023-06-10T00:04:38;99449.84;;;15.31;73.68
50282;BME280;36176;51.506;10.272;2023-06-10T00:07:06;99449.69;;;15.20;74.48
50282;BME280;36176;51.506;10.272;2023-06-10T00:09:36;99449.88;;;15.04;74.87
50282;BME280;36176;51.506;10.272;2023-06-10T00:12:05;99442.47;;;14.95;74.96
50282;BME280;36176;51.506;10.272;2023-06-10T00:14:35;99445.31;;;14.92;75.41
50282;BME280;36176;51.506;10.272;2023-06-10T00:17:02;99444.78;;;14.86;76.03
50282;BME280;36176;51.506;10.272;2023-06-10T00:19:29;99452.53;;;14.77;75.82
50282;BME280;36176;51.506;10.272;2023-06-10T00:22:00;99452.94;;;14.71;76.23
50282;BME280;36176;51.506;10.272;2023-06-10T00:24:27;99447.22;;;14.62;76.77
50282;BME280;36176;51.506;10.272;2023-06-10T00:26:54;99452.97;;;14.56;77.41
50282;BME280;36176;51.506;10.272;2023-06-10T00:29:22;99452.38;;;14.51;77.47
50282;BME280;36176;51.506;10.272;2023-06-10T00:31:49;99453.72;;;14.44;78.29
50282;BME280;36176;51.506;10.272;2023-06-10T00:34:16;99452.38;;;14.37;78.34
50282;BME280;36176;51.506;10.272;2023-06-10T00:36:43;99445.81;;;14.28;78.59
50282;BME280;36176;51.506;10.272;2023-06-10T00:39:10;99445.75;;;14.30;78.46
50282;BME280;36176;51.506;10.272;2023-06-10T00:41:38;99442.31;;;14.28;78.35
50282;BME280;36176;51.506;10.272;2023-06-10T00:44:05;99442.31;;;14.28;78.39
50282;BME280;36176;51.506;10.272;2023-06-10T00:46:32;99439.38;;;14.18;79.75
50282;BME280;36176;51.506;10.272;2023-06-10T00:49:01;99449.81;;;14.07;80.19
50282;BME280;36176;51.506;10.272;2023-06-10T00:51:28;99445.75;;;14.01;80.77
50282;BME280;36176;51.506;10.272;2023-06-10T00:53:56;99449.81;;;13.92;80.83
50282;BME280;36176;51.506;10.272;2023-06-10T00:56:23;99444.00;;;13.86;80.36
50282;BME280;36176;51.506;10.272;2023-06-10T00:58:50;99448.00;;;13.78;80.46
50282;BME280;36176;51.506;10.272;2023-06-10T01:01:18;99454.34;;;13.76;80.41
50282;BME280;36176;51.506;10.272;2023-06-10T01:03:47;99445.03;;;13.69;80.19
50282;BME280;36176;51.506;10.272;2023-06-10T01:06:41;99448.72;;;13.66;80.75
50282;BME280;36176;51.506;10.272;2023-06-10T01:09:32;99455.19;;;13.62;80.86
50282;BME280;36176;51.506;10.272;2023-06-10T01:12:31;99452.06;;;13.55;81.36
50282;BME280;36176;51.506;10.272;2023-06-10T01:15:04;99448.03;;;13.48;81.41
50282;BME280;36176;51.506;10.272;2023-06-10T01:17:31;99449.81;;;13.48;81.42
50282;BME280;36176;51.506;10.272;2023-06-10T01:19:59;99446.50;;;13.44;82.02
50282;BME280;36176;51.506;10.272;2023-06-10T01:22:26;99455.53;;;13.42;82.27
50282;BME280;36176;51.506;10.272;2023-06-10T01:24:59;99441.53;;;13.38;82.36
50282;BME280;36176;51.506;10.272;2023-06-10T01:27:30;99448.16;;;13.31;82.38
50282;BME280;36176;51.506;10.272;2023-06-10T01:30:08;99450.16;;;13.27;82.74
50282;BME280;36176;51.506;10.272;2023-06-10T01:32:43;99454.94;;;13.20;83.18
50282;BME280;36176;51.506;10.272;2023-06-10T01:35:12;99452.47;;;13.17;83.12
50282;BME280;36176;51.506;10.272;2023-06-10T01:37:43;99453.66;;;13.12;83.18
50282;BME280;36176;51.506;10.272;2023-06-10T01:40:13;99454.88;;;13.06;83.42
50282;BME280;36176;51.506;10.272;2023-06-10T01:42:40;99456.09;;;13.01;83.33
50282;BME280;36176;51.506;10.272;2023-06-10T01:45:09;99455.41;;;12.97;83.47
50282;BME280;36176;51.506;10.272;2023-06-10T01:47:37;99456.44;;;12.94;83.63
50282;BME280;36176;51.506;10.272;2023-06-10T01:50:04;99449.88;;;12.86;84.00
50282;BME280;36176;51.506;10.272;2023-06-10T01:52:31;99464.59;;;12.91;83.51
50282;BME280;36176;51.506;10.272;2023-06-10T01:54:58;99465.81;;;12.86;84.53
50282;BME280;36176;51.506;10.272;2023-06-10T01:57:26;99458.97;;;12.82;84.02
50282;BME280;36176;51.506;10.272;2023-06-10T01:59:53;99462.53;;;12.81;83.89
50282;BME280;36176;51.506;10.272;2023-06-10T02:02:20;99459.28;;;12.75;84.91
50282;BME280;36176;51.506;10.272;2023-06-10T02:04:49;99462.91;;;12.74;84.38
50282;BME280;36176;51.506;10.272;2023-06-10T02:07:16;99456.13;;;12.69;84.86
50282;BME280;36176;51.506;10.272;2023-06-10T02:09:43;99466.31;;;12.61;84.94
50282;BME280;36176;51.506;10.272;2023-06-10T02:12:10;99465.72;;;12.55;85.19
50282;BME280;36176;51.506;10.272;2023-06-10T02:14:38;99480.13;;;12.51;85.04
50282;BME280;36176;51.506;10.272;2023-06-10T02:17:06;99478.66;;;12.46;85.36
50282;BME280;36176;51.506;10.272;2023-06-10T02:19:33;99476.34;;;12.40;86.44
50282;BME280;36176;51.506;10.272;2023-06-10T02:22:03;99481.22;;;12.31;86.52
50282;BME280;36176;51.506;10.272;2023-06-10T02:24:30;99478.75;;;12.28;86.68
50282;BME280;36176;51.506;10.272;2023-06-10T02:26:58;99489.69;;;12.22;86.54
50282;BME280;36176;51.506;10.272;2023-06-10T02:29:27;99484.19;;;12.25;86.87
50282;BME280;36176;51.506;10.272;2023-06-10T02:31:54;99499.22;;;12.26;86.79
50282;BME280;36176;51.506;10.272;2023-06-10T02:34:22;99496.69;;;12.23;86.69
50282;BME280;36176;51.506;10.272;2023-06-10T02:36:49;99500.31;;;12.22;86.61
50282;BME280;36176;51.506;10.272;2023-06-10T02:39:18;99496.81;;;12.22;86.55
50282;BME280;36176;51.506;10.272;2023-06-10T02:41:45;99492.41;;;12.21;86.29
50282;BME280;36176;51.506;10.272;2023-06-10T02:44:12;99501.16;;;12.23;86.65
50282;BME280;36176;51.506;10.272;2023-06-10T02:46:39;99493.28;;;12.21;86.59
50282;BME280;36176;51.506;10.272;2023-06-10T02:49:07;99497.72;;;12.21;86.73
50282;BME280;36176;51.506;10.272;2023-06-10T02:51:35;99499.69;;;12.17;87.35
50282;BME280;36176;51.506;10.272;2023-06-10T02:54:03;99491.13;;;12.12;87.46
50282;BME280;36176;51.506;10.272;2023-06-10T02:56:30;99501.03;;;12.08;87.24
50282;BME280;36176;51.506;10.272;2023-06-10T02:58:58;99498.09;;;11.97;88.65
50282;BME280;36176;51.506;10.272;2023-06-10T03:01:26;99494.13;;;11.88;89.43
50282;BME280;36176;51.506;10.272;2023-06-10T03:03:53;99495.41;;;11.80;88.89
50282;BME280;36176;51.506;10.272;2023-06-10T03:06:23;99496.66;;;11.73;89.54
50282;BME280;36176;51.506;10.272;2023-06-10T03:08:51;99484.41;;;11.70;89.40
50282;BME280;36176;51.506;10.272;2023-06-10T03:11:18;99489.19;;;11.63;91.03
50282;BME280;36176;51.506;10.272;2023-06-10T03:13:46;99482.41;;;11.58;90.14
50282;BME280;36176;51.506;10.272;2023-06-10T03:16:14;99484.25;;;11.56;90.70
50282;BME280;36176;51.506;10.272;2023-06-10T03:18:42;99485.13;;;11.56;90.18
50282;BME280;36176;51.506;10.272;2023-06-10T03:21:09;99486.00;;;11.57;90.25
50282;BME280;36176;51.506;10.272;2023-06-10T03:23:36;99481.44;;;11.59;90.76
50282;BME280;36176;51.506;10.272;2023-06-10T03:26:04;99491.22;;;11.58;90.57
50282;BME280;36176;51.506;10.272;2023-06-10T03:28:31;99493.00;;;11.58;90.75
50282;BME280;36176;51.506;10.272;2023-06-10T03:30:59;99496.44;;;11.60;90.85
50282;BME280;36176;51.506;10.272;2023-06-10T03:33:26;99499.16;;;11.58;91.04
50282;BME280;36176;51.506;10.272;2023-06-10T03:35:53;99499.88;;;11.62;90.80
50282;BME280;36176;51.506;10.272;2023-06-10T03:38:20;99504.81;;;11.69;90.06
50282;BME280;36176;51.506;10.272;2023-06-10T03:40:48;99505.75;;;11.68;90.83
50282;BME280;36176;51.506;10.272;2023-06-10T03:43:15;99501.19;;;11.70;90.72
50282;BME280;36176;51.506;10.272;2023-06-10T03:45:42;99502.75;;;11.75;90.51
50282;BME280;36176;51.506;10.272;2023-06-10T03:48:09;99506.88;;;11.80;90.18
50282;BME280;36176;51.506;10.272;2023-06-10T03:50:38;99504.88;;;11.85;90.69
50282;BME280;36176;51.506;10.272;2023-06-10T03:53:08;99497.56;;;11.90;90.40
50282;BME280;36176;51.506;10.272;2023-06-10T03:55:35;99500.84;;;11.96;90.38
50282;BME280;36176;51.506;10.272;2023-06-10T03:58:03;99502.78;;;11.92;90.11
50282;BME280;36176;51.506;10.272;2023-06-10T04:00:30;99500.91;;;11.94;89.89
50282;BME280;36176;51.506;10.272;2023-06-10T04:02:57;99505.91;;;12.00;90.27
50282;BME280;36176;51.506;10.272;2023-06-10T04:05:25;99504.53;;;12.09;89.95
50282;BME280;36176;51.506;10.272;2023-06-10T04:07:52;99515.63;;;12.17;89.70
50282;BME280;36176;51.506;10.272;2023-06-10T04:10:20;99511.72;;;12.24;89.63
50282;BME280;36176;51.506;10.272;2023-06-10T04:12:47;99505.19;;;12.30;88.98
50282;BME280;36176;51.506;10.272;2023-06-10T04:15:14;99508.72;;;12.30;89.16
50282;BME280;36176;51.506;10.272;2023-06-10T04:17:42;99505.66;;;12.38;88.75
50282;BME280;36176;51.506;10.272;2023-06-10T04:20:10;99507.03;;;12.45;88.93
50282;BME280;36176;51.506;10.272;2023-06-10T04:22:37;99507.22;;;12.58;88.89
50282;BME280;36176;51.506;10.272;2023-06-10T04:25:04;99505.00;;;12.66;88.83
50282;BME280;36176;51.506;10.272;2023-06-10T04:27:32;99506.53;;;12.70;88.94
50282;BME280;36176;51.506;10.272;2023-06-10T04:29:59;99505.09;;;12.81;88.67
50282;BME280;36176;51.506;10.272;2023-06-10T04:32:26;99501.06;;;12.89;87.91
50282;BME280;36176;51.506;10.272;2023-06-10T04:34:53;99505.78;;;13.00;87.14
50282;BME280;36176;51.506;10.272;2023-06-10T04:37:20;99512.47;;;13.07;86.99
50282;BME280;36176;51.506;10.272;2023-06-10T04:39:47;99509.72;;;13.25;86.99
50282;BME280;36176;51.506;10.272;2023-06-10T04:42:14;99510.56;;;13.41;86.81
50282;BME280;36176;51.506;10.272;2023-06-10T04:44:41;99511.00;;;13.64;86.56
50282;BME280;36176;51.506;10.272;2023-06-10T04:47:09;99520.50;;;13.98;86.03
50282;BME280;36176;51.506;10.272;2023-06-10T04:49:37;99519.03;;;14.37;84.83
50282;BME280;36176;51.506;10.272;2023-06-10T04:52:04;99517.75;;;14.85;83.53
50282;BME280;36176;51.506;10.272;2023-06-10T04:54:32;99518.75;;;15.39;81.01
50282;BME280;36176;51.506;10.272;2023-06-10T04:56:59;99518.16;;;16.01;79.29
50282;BME280;36176;51.506;10.272;2023-06-10T04:59:27;99521.22;;;16.58;76.86
50282;BME280;36176;51.506;10.272;2023-06-10T05:01:54;99516.31;;;17.15;75.29
50282;BME280;36176;51.506;10.272;2023-06-10T05:04:22;99526.69;;;17.79;73.21
50282;BME280;36176;51.506;10.272;2023-06-10T05:06:49;99519.66;;;18.36;69.97
50282;BME280;36176;51.506;10.272;2023-06-10T05:09:17;99522.34;;;18.92;68.32
50282;BME280;36176;51.506;10.272;2023-06-10T05:11:44;99516.97;;;19.47;67.07
50282;BME280;36176;51.506;10.272;2023-06-10T05:14:11;99522.31;;;20.11;64.14
50282;BME280;36176;51.506;10.272;2023-06-10T05:16:39;99524.34;;;20.50;62.12
50282;BME280;36176;51.506;10.272;2023-06-10T05:19:07;99533.75;;;20.96;61.09
50282;BME280;36176;51.506;10.272;2023-06-10T05:21:34;99530.56;;;21.21;58.06
50282;BME280;36176;51.506;10.272;2023-06-10T05:24:02;99534.59;;;21.56;57.12
50282;BME280;36176;51.506;10.272;2023-06-10T05:26:30;99540.41;;;21.91;55.84
50282;BME280;36176;51.506;10.272;2023-06-10T05:28:59;99530.16;;;22.33;56.06
50282;BME280;36176;51.506;10.272;2023-06-10T05:31:27;99526.59;;;22.80;55.32
50282;BME280;36176;51.506;10.272;2023-06-10T05:33:54;99532.38;;;23.12;54.31
50282;BME280;36176;51.506;10.272;2023-06-10T05:36:21;99529.59;;;23.50;51.57
50282;BME280;36176;51.506;10.272;2023-06-10T05:38:49;99529.91;;;23.65;50.28
50282;BME280;36176;51.506;10.272;2023-06-10T05:41:16;99524.81;;;23.80;49.92
50282;BME280;36176;51.506;10.272;2023-06-10T05:43:43;99523.31;;;24.03;49.95
50282;BME280;36176;51.506;10.272;2023-06-10T05:46:10;99536.97;;;24.46;48.66
50282;BME280;36176;51.506;10.272;2023-06-10T05:48:37;99539.91;;;24.78;47.55
50282;BME280;36176;51.506;10.272;2023-06-10T05:51:04;99545.47;;;24.77;45.80
50282;BME280;36176;51.506;10.272;2023-06-10T05:53:32;99540.91;;;24.77;47.08
50282;BME280;36176;51.506;10.272;2023-06-10T05:55:59;99537.75;;;24.90;46.07
50282;BME280;36176;51.506;10.272;2023-06-10T05:58:26;99538.25;;;25.28;46.96
50282;BME280;36176;51.506;10.272;2023-06-10T06:00:53;99541.56;;;25.64;43.52
50282;BME280;36176;51.506;10.272;2023-06-10T06:03:21;99540.06;;;25.95;44.51
50282;BME280;36176;51.506;10.272;2023-06-10T06:05:48;99536.16;;;26.22;42.64
50282;BME280;36176;51.506;10.272;2023-06-10T06:08:16;99533.94;;;26.25;42.59
50282;BME280;36176;51.506;10.272;2023-06-10T06:10:45;99538.66;;;26.40;41.53
50282;BME280;36176;51.506;10.272;2023-06-10T06:13:13;99542.06;;;26.42;40.97
50282;BME280;36176;51.506;10.272;2023-06-10T06:15:40;99543.91;;;26.58;43.46
50282;BME280;36176;51.506;10.272;2023-06-10T06:18:07;99533.78;;;26.91;41.96
50282;BME280;36176;51.506;10.272;2023-06-10T06:20:34;99538.97;;;27.09;40.43
50282;BME280;36176;51.506;10.272;2023-06-10T06:23:02;99531.81;;;27.08;40.65
50282;BME280;36176;51.506;10.272;2023-06-10T06:25:30;99534.16;;;27.27;39.50
50282;BME280;36176;51.506;10.272;2023-06-10T06:27:57;99533.16;;;27.12;39.87
50282;BME280;36176;51.506;10.272;2023-06-10T06:30:24;99533.31;;;27.19;40.72
50282;BME280;36176;51.506;10.272;2023-06-10T06:32:51;99537.25;;;27.47;38.65
50282;BME280;36176;51.506;10.272;2023-06-10T06:35:19;99534.13;;;27.58;38.68
50282;BME280;36176;51.506;10.272;2023-06-10T06:37:46;99540.34;;;27.44;38.88
50282;BME280;36176;51.506;10.272;2023-06-10T06:40:13;99545.56;;;27.77;38.45
50282;BME280;36176;51.506;10.272;2023-06-10T06:42:40;99544.69;;;27.85;38.61
50282;BME280;36176;51.506;10.272;2023-06-10T06:45:08;99551.47;;;28.27;38.48
50282;BME280;36176;51.506;10.272;2023-06-10T06:47:36;99548.72;;;28.79;38.71
50282;BME280;36176;51.506;10.272;2023-06-10T06:50:03;99549.84;;;29.00;36.51
50282;BME280;36176;51.506;10.272;2023-06-10T06:52:30;99550.88;;;28.99;36.26
50282;BME280;36176;51.506;10.272;2023-06-10T06:54:57;99560.00;;;29.06;35.64
50282;BME280;36176;51.506;10.272;2023-06-10T06:57:25;99560.84;;;29.07;36.40
50282;BME280;36176;51.506;10.272;2023-06-10T06:59:52;99556.53;;;28.82;35.91
50282;BME280;36176;51.506;10.272;2023-06-10T07:02:19;99557.22;;;29.14;35.21
50282;BME280;36176;51.506;10.272;2023-06-10T07:04:47;99556.56;;;29.48;34.15
50282;BME280;36176;51.506;10.272;2023-06-10T07:07:16;99558.88;;;29.66;34.99
50282;BME280;36176;51.506;10.272;2023-06-10T07:09:43;99561.00;;;30.36;33.26
50282;BME280;36176;51.506;10.272;2023-06-10T07:12:10;99568.59;;;30.40;33.42
50282;BME280;36176;51.506;10.272;2023-06-10T07:14:38;99567.84;;;30.25;33.18
50282;BME280;36176;51.506;10.272;2023-06-10T07:17:05;99564.06;;;30.04;32.41
50282;BME280;36176;51.506;10.272;2023-06-10T07:19:32;99563.44;;;30.52;32.84
50282;BME280;36176;51.506;10.272;2023-06-10T07:22:00;99562.88;;;30.35;33.58
50282;BME280;36176;51.506;10.272;2023-06-10T07:24:27;99569.66;;;30.74;32.88
50282;BME280;36176;51.506;10.272;2023-06-10T07:26:55;99565.75;;;30.83;31.51
50282;BME280;36176;51.506;10.272;2023-06-10T07:29:22;99559.41;;;31.11;31.45
50282;BME280;36176;51.506;10.272;2023-06-10T07:31:49;99562.69;;;31.00;32.32
50282;BME280;36176;51.506;10.272;2023-06-10T07:34:17;99567.22;;;31.21;33.30
50282;BME280;36176;51.506;10.272;2023-06-10T07:36:44;99564.84;;;31.59;30.61
50282;BME280;36176;51.506;10.272;2023-06-10T07:39:11;99566.34;;;31.75;32.39
50282;BME280;36176;51.506;10.272;2023-06-10T07:41:38;99560.47;;;31.71;30.38
50282;BME280;36176;51.506;10.272;2023-06-10T07:44:06;99554.69;;;31.40;30.70
50282;BME280;36176;51.506;10.272;2023-06-10T07:46:33;99566.63;;;31.25;31.67
50282;BME280;36176;51.506;10.272;2023-06-10T07:49:00;99553.50;;;31.69;31.23
50282;BME280;36176;51.506;10.272;2023-06-10T07:51:28;99556.13;;;32.24;30.91
50282;BME280;36176;51.506;10.272;2023-06-10T07:53:55;99544.50;;;32.15;31.93
50282;BME280;36176;51.506;10.272;2023-06-10T07:56:22;99537.75;;;32.64;30.07
50282;BME280;36176;51.506;10.272;2023-06-10T07:58:49;99545.66;;;33.05;31.54
50282;BME280;36176;51.506;10.272;2023-06-10T08:01:16;99544.75;;;33.25;32.09
50282;BME280;36176;51.506;10.272;2023-06-10T08:03:43;99541.66;;;33.46;30.53
50282;BME280;36176;51.506;10.272;2023-06-10T08:06:11;99535.19;;;33.34;30.89
50282;BME280;36176;51.506;10.272;2023-06-10T08:08:38;99536.34;;;33.13;30.68
50282;BME280;36176;51.506;10.272;2023-06-10T08:11:11;99535.13;;;33.47;31.02
50282;BME280;36176;51.506;10.272;2023-06-10T08:13:38;99542.47;;;33.92;29.57
50282;BME280;36176;51.506;10.272;2023-06-10T08:16:06;99534.00;;;33.94;28.79
50282;BME280;36176;51.506;10.272;2023-06-10T08:18:34;99537.50;;;33.76;29.13
50282;BME280;36176;51.506;10.272;2023-06-10T08:21:02;99536.44;;;33.38;30.40
50282;BME280;36176;51.506;10.272;2023-06-10T08:23:30;99539.63;;;33.35;31.72
50282;BME280;36176;51.506;10.272;2023-06-10T08:25:57;99544.09;;;33.30;31.31
50282;BME280;36176;51.506;10.272;2023-06-10T08:28:25;99532.78;;;33.58;32.46
50282;BME280;36176;51.506;10.272;2023-06-10T08:30:52;99540.91;;;33.71;29.68
50282;BME280;36176;51.506;10.272;2023-06-10T08:33:23;99539.53;;;33.62;30.90
50282;BME280;36176;51.506;10.272;2023-06-10T08:35:50;99534.63;;;33.64;30.13
50282;BME280;36176;51.506;10.272;2023-06-10T08:38:17;99542.34;;;33.80;31.44
50282;BME280;36176;51.506;10.272;2023-06-10T08:40:44;99535.91;;;33.93;29.88
50282;BME280;36176;51.506;10.272;2023-06-10T08:43:45;99541.72;;;34.10;29.38
50282;BME280;36176;51.506;10.272;2023-06-10T08:46:13;99540.34;;;34.19;29.54
50282;BME280;36176;51.506;10.272;2023-06-10T08:48:43;99538.91;;;34.42;29.75
50282;BME280;36176;51.506;10.272;2023-06-10T08:51:11;99531.28;;;34.44;32.73
50282;BME280;36176;51.506;10.272;2023-06-10T08:53:48;99532.53;;;34.23;31.33
50282;BME280;36176;51.506;10.272;2023-06-10T08:56:17;99531.00;;;33.70;29.45
50282;BME280;36176;51.506;10.272;2023-06-10T08:58:44;99532.13;;;33.17;30.80
50282;BME280;36176;51.506;10.272;2023-06-10T09:01:12;99529.03;;;33.39;32.01
50282;BME280;36176;51.506;10.272;2023-06-10T09:03:41;99533.44;;;33.85;31.48
50282;BME280;36176;51.506;10.272;2023-06-10T09:06:09;99527.44;;;33.95;31.47
50282;BME280;36176;51.506;10.272;2023-06-10T09:08:37;99530.00;;;33.64;29.67
50282;BME280;36176;51.506;10.272;2023-06-10T09:11:05;99523.13;;;32.83;30.68
50282;BME280;36176;51.506;10.272;2023-06-10T09:13:32;99528.59;;;32.90;31.96
50282;BME280;36176;51.506;10.272;2023-06-10T09:15:59;99520.50;;;33.15;31.71
50282;BME280;36176;51.506;10.272;2023-06-10T09:18:29;99524.03;;;33.29;30.25
50282;BME280;36176;51.506;10.272;2023-06-10T09:20:57;99524.84;;;33.75;32.46
50282;BME280;36176;51.506;10.272;2023-06-10T09:23:25;99522.56;;;33.97;31.82
50282;BME280;36176;51.506;10.272;2023-06-10T09:25:56;99519.75;;;34.10;31.87
50282;BME280;36176;51.506;10.272;2023-06-10T09:28:25;99517.22;;;34.02;33.00
50282;BME280;36176;51.506;10.272;2023-06-10T09:31:05;99511.19;;;34.18;33.68
50282;BME280;36176;51.506;10.272;2023-06-10T09:33:33;99513.03;;;33.99;33.50
50282;BME280;36176;51.506;10.272;2023-06-10T09:36:03;99515.56;;;34.01;31.91
50282;BME280;36176;51.506;10.272;2023-06-10T09:38:32;99512.84;;;33.94;32.64
50282;BME280;36176;51.506;10.272;2023-06-10T09:41:00;99514.72;;;34.00;34.11
50282;BME280;36176;51.506;10.272;2023-06-10T09:43:44;99511.31;;;34.05;31.79
50282;BME280;36176;51.506;10.272;2023-06-10T09:48:44;99506.31;;;34.64;34.46
50282;BME280;36176;51.506;10.272;2023-06-10T09:51:13;99507.25;;;34.33;32.55
50282;BME280;36176;51.506;10.272;2023-06-10T09:53:41;99510.31;;;33.93;32.00
50282;BME280;36176;51.506;10.272;2023-06-10T09:56:08;99498.38;;;33.03;31.63
50282;BME280;36176;51.506;10.272;2023-06-10T09:58:38;99505.50;;;32.26;34.31
50282;BME280;36176;51.506;10.272;2023-06-10T10:01:06;99506.53;;;32.32;35.16
50282;BME280;36176;51.506;10.272;2023-06-10T10:03:45;99503.38;;;32.41;34.90
50282;BME280;36176;51.506;10.272;2023-06-10T10:06:14;99501.22;;;32.63;32.12
50282;BME280;36176;51.506;10.272;2023-06-10T10:08:43;99489.78;;;32.80;33.29
50282;BME280;36176;51.506;10.272;2023-06-10T10:11:10;99494.78;;;33.03;33.19
50282;BME280;36176;51.506;10.272;2023-06-10T10:13:38;99501.25;;;33.22;31.56
50282;BME280;36176;51.506;10.272;2023-06-10T10:16:17;99494.06;;;33.21;30.82
50282;BME280;36176;51.506;10.272;2023-06-10T10:18:59;99493.88;;;32.64;30.92
50282;BME280;36176;51.506;10.272;2023-06-10T10:21:32;99498.56;;;32.04;30.88
50282;BME280;36176;51.506;10.272;2023-06-10T10:24:12;99498.94;;;31.81;32.91
50282;BME280;36176;51.506;10.272;2023-06-10T10:29:43;99494.75;;;31.78;33.86
50282;BME280;36176;51.506;10.272;2023-06-10T10:32:13;99491.81;;;31.11;32.86
50282;BME280;36176;51.506;10.272;2023-06-10T10:37:32;99493.66;;;30.98;35.18
50282;BME280;36176;51.506;10.272;2023-06-10T10:40:01;99491.03;;;31.31;34.03
50282;BME280;36176;51.506;10.272;2023-06-10T10:42:30;99488.47;;;31.16;34.71
50282;BME280;36176;51.506;10.272;2023-06-10T10:44:59;99486.09;;;31.00;36.15
50282;BME280;36176;51.506;10.272;2023-06-10T10:47:28;99494.72;;;30.97;34.65
50282;BME280;36176;51.506;10.272;2023-06-10T10:49:58;99491.91;;;30.83;34.98
50282;BME280;36176;51.506;10.272;2023-06-10T10:52:48;99491.00;;;30.76;36.57
50282;BME280;36176;51.506;10.272;2023-06-10T10:55:17;99486.91;;;30.93;35.62
50282;BME280;36176;51.506;10.272;2023-06-10T10:57:53;99475.13;;;30.93;34.35
50282;BME280;36176;51.506;10.272;2023-06-10T11:00:44;99480.06;;;31.24;34.05
50282;BME280;36176;51.506;10.272;2023-06-10T11:03:14;99484.94;;;31.35;35.95
50282;BME280;36176;51.506;10.272;2023-06-10T11:05:48;99471.94;;;31.51;35.36
50282;BME280;36176;51.506;10.272;2023-06-10T11:11:22;99473.66;;;31.52;36.16
50282;BME280;36176;51.506;10.272;2023-06-10T11:16:29;99471.47;;;31.34;33.47
50282;BME280;36176;51.506;10.272;2023-06-10T11:18:56;99486.13;;;31.06;34.50
50282;BME280;36176;51.506;10.272;2023-06-10T11:21:24;99476.31;;;30.77;33.14
50282;BME280;36176;51.506;10.272;2023-06-10T11:23:57;99468.59;;;30.87;34.31
50282;BME280;36176;51.506;10.272;2023-06-10T11:33:56;99469.34;;;31.29;32.80
50282;BME280;36176;51.506;10.272;2023-06-10T11:36:25;99466.63;;;30.81;33.84
50282;BME280;36176;51.506;10.272;2023-06-10T11:38:57;99463.56;;;30.98;33.01
50282;BME280;36176;51.506;10.272;2023-06-10T11:41:25;99466.53;;;30.96;33.08
50282;BME280;36176;51.506;10.272;2023-06-10T11:46:30;99455.22;;;31.19;32.76
50282;BME280;36176;51.506;10.272;2023-06-10T11:48:58;99444.50;;;31.31;34.23
50282;BME280;36176;51.506;10.272;2023-06-10T11:51:32;99451.53;;;31.47;34.50
50282;BME280;36176;51.506;10.272;2023-06-10T11:53:59;99454.44;;;30.77;32.95
50282;BME280;36176;51.506;10.272;2023-06-10T11:56:27;99457.91;;;30.58;34.71
50282;BME280;36176;51.506;10.272;2023-06-10T11:59:03;99450.19;;;30.68;33.46
50282;BME280;36176;51.506;10.272;2023-06-10T12:01:42;99454.00;;;30.80;33.56
50282;BME280;36176;51.506;10.272;2023-06-10T12:04:15;99457.69;;;31.01;33.80
50282;BME280;36176;51.506;10.272;2023-06-10T12:06:45;99456.06;;;30.71;34.70
50282;BME280;36176;51.506;10.272;2023-06-10T12:09:25;99450.63;;;30.78;34.12
50282;BME280;36176;51.506;10.272;2023-06-10T12:12:02;99454.06;;;30.93;34.27
50282;BME280;36176;51.506;10.272;2023-06-10T12:14:52;99436.59;;;30.88;34.88
50282;BME280;36176;51.506;10.272;2023-06-10T12:19:59;99447.66;;;31.28;35.05
50282;BME280;36176;51.506;10.272;2023-06-10T12:22:27;99443.66;;;31.30;35.15
50282;BME280;36176;51.506;10.272;2023-06-10T12:25:04;99447.69;;;31.34;33.91
50282;BME280;36176;51.506;10.272;2023-06-10T12:27:34;99459.25;;;31.23;35.12
50282;BME280;36176;51.506;10.272;2023-06-10T12:30:04;99457.53;;;31.22;33.81
50282;BME280;36176;51.506;10.272;2023-06-10T12:35:05;99459.31;;;31.50;32.78
50282;BME280;36176;51.506;10.272;2023-06-10T12:37:33;99455.00;;;31.14;34.20
50282;BME280;36176;51.506;10.272;2023-06-10T12:40:02;99456.88;;;31.07;34.37
50282;BME280;36176;51.506;10.272;2023-06-10T12:42:30;99447.16;;;30.98;34.23
50282;BME280;36176;51.506;10.272;2023-06-10T12:44:58;99447.38;;;31.03;33.61
50282;BME280;36176;51.506;10.272;2023-06-10T12:47:35;99450.19;;;30.68;33.68
50282;BME280;36176;51.506;10.272;2023-06-10T12:50:06;99455.41;;;30.63;33.46
50282;BME280;36176;51.506;10.272;2023-06-10T12:52:34;99456.22;;;30.57;33.93
50282;BME280;36176;51.506;10.272;2023-06-10T12:55:02;99453.28;;;30.58;33.98
50282;BME280;36176;51.506;10.272;2023-06-10T12:57:31;99454.13;;;30.59;35.00
50282;BME280;36176;51.506;10.272;2023-06-10T12:59:58;99443.66;;;30.69;33.86
50282;BME280;36176;51.506;10.272;2023-06-10T13:02:31;99448.00;;;30.91;34.79
50282;BME280;36176;51.506;10.272;2023-06-10T13:04:59;99449.66;;;30.92;32.58
50282;BME280;36176;51.506;10.272;2023-06-10T13:07:26;99448.19;;;30.55;34.35
50282;BME280;36176;51.506;10.272;2023-06-10T13:09:53;99445.34;;;30.70;34.54
50282;BME280;36176;51.506;10.272;2023-06-10T13:12:20;99440.66;;;30.22;34.32
50282;BME280;36176;51.506;10.272;2023-06-10T13:15:04;99441.44;;;30.16;34.90
50282;BME280;36176;51.506;10.272;2023-06-10T13:17:32;99444.88;;;30.25;36.30
50282;BME280;36176;51.506;10.272;2023-06-10T13:20:03;99447.50;;;30.40;35.29
50282;BME280;36176;51.506;10.272;2023-06-10T13:22:33;99437.69;;;30.52;34.34
50282;BME280;36176;51.506;10.272;2023-06-10T13:25:05;99440.00;;;30.55;32.61
50282;BME280;36176;51.506;10.272;2023-06-10T13:27:36;99431.69;;;30.35;34.66
50282;BME280;36176;51.506;10.272;2023-06-10T13:30:08;99433.88;;;30.18;33.47